sensor_id;sensor_type;location;lat;lon;timestamp;temperature;humidity
5264;DHT22;2654;47.958;13.614;2022-08-04T00:01:36;20.30;1.00
5264;DHT22;2654;47.958;13.614;2022-08-04T00:04:11;20.40;1.00
5264;DHT22;2654;47.958;13.614;2022-08-04T00:06:47;20.30;1.00
5264;DHT22;2654;47.958;13.614;2022-08-04T00:09:29;20.20;1.00
5264;DHT22;2654;47.958;13.614;2022-08-04T00:12:00;20.00;1.00
5264;DHT22;2654;47.958;13.614;2022-08-04T00:14:31;19.80;1.00
5264;DHT22;2654;47.958;13.614;2022-08-04T00:17:05;19.70;1.00
5264;DHT22;2654;47.958;13.614;2022-08-04T00:19:37;19.60;1.00
5264;DHT22;2654;47.958;13.614;2022-08-04T00:22:08;19.60;99.90
5264;DHT22;2654;47.958;13.614;2022-08-04T00:24:36;19.50;99.90
5264;DHT22;2654;47.958;13.614;2022-08-04T00:27:06;19.40;42.50
5264;DHT22;2654;47.958;13.614;2022-08-04T00:29:34;19.40;99.90
5264;DHT22;2654;47.958;13.614;2022-08-04T00:32:06;19.50;1.00
5264;DHT22;2654;47.958;13.614;2022-08-04T00:34:35;19.80;99.90
5264;DHT22;2654;47.958;13.614;2022-08-04T00:37:04;19.90;99.90
5264;DHT22;2654;47.958;13.614;2022-08-04T00:39:32;19.80;99.90
5264;DHT22;2654;47.958;13.614;2022-08-04T00:42:23;19.60;99.90
5264;DHT22;2654;47.958;13.614;2022-08-04T00:45:02;19.40;1.00
5264;DHT22;2654;47.958;13.614;2022-08-04T00:47:43;19.30;1.00
5264;DHT22;2654;47.958;13.614;2022-08-04T00:50:24;19.20;99.90
5264;DHT22;2654;47.958;13.614;2022-08-04T00:53:06;19.30;1.00
5264;DHT22;2654;47.958;13.614;2022-08-04T00:58:48;19.20;1.00
5264;DHT22;2654;47.958;13.614;2022-08-04T01:01:43;19.10;52.20
5264;DHT22;2654;47.958;13.614;2022-08-04T01:04:23;19.00;99.90
5264;DHT22;2654;47.958;13.614;2022-08-04T01:07:14;18.90;99.90
5264;DHT22;2654;47.958;13.614;2022-08-04T01:09:52;18.90;99.90
5264;DHT22;2654;47.958;13.614;2022-08-04T01:12:42;18.80;1.00
5264;DHT22;2654;47.958;13.614;2022-08-04T01:15:17;19.00;1.00
5264;DHT22;2654;47.958;13.614;2022-08-04T01:18:03;19.10;99.90
5264;DHT22;2654;47.958;13.614;2022-08-04T01:20:36;19.30;99.90
5264;DHT22;2654;47.958;13.614;2022-08-04T01:23:49;19.50;99.90
5264;DHT22;2654;47.958;13.614;2022-08-04T01:29:26;19.30;1.00
5264;DHT22;2654;47.958;13.614;2022-08-04T01:32:01;19.20;1.00
5264;DHT22;2654;47.958;13.614;2022-08-04T01:34:30;19.00;99.90
5264;DHT22;2654;47.958;13.614;2022-08-04T01:37:10;18.90;99.90
5264;DHT22;2654;47.958;13.614;2022-08-04T01:39:44;18.70;1.00
5264;DHT22;2654;47.958;13.614;2022-08-04T01:42:19;18.70;99.90
5264;DHT22;2654;47.958;13.614;2022-08-04T01:44:49;18.60;99.90
5264;DHT22;2654;47.958;13.614;2022-08-04T01:47:20;18.70;99.90
5264;DHT22;2654;47.958;13.614;2022-08-04T01:49:49;18.70;99.90
5264;DHT22;2654;47.958;13.614;2022-08-04T01:52:18;18.70;99.90
5264;DHT22;2654;47.958;13.614;2022-08-04T01:54:47;18.70;99.90
5264;DHT22;2654;47.958;13.614;2022-08-04T01:57:16;18.70;99.90
5264;DHT22;2654;47.958;13.614;2022-08-04T01:59:46;18.60;99.90
5264;DHT22;2654;47.958;13.614;2022-08-04T02:02:21;18.60;99.90
5264;DHT22;2654;47.958;13.614;2022-08-04T02:04:49;18.60;99.90
5264;DHT22;2654;47.958;13.614;2022-08-04T02:07:27;18.70;99.90
5264;DHT22;2654;47.958;13.614;2022-08-04T02:10:04;18.80;99.90
5264;DHT22;2654;47.958;13.614;2022-08-04T02:12:45;18.80;99.90
5264;DHT22;2654;47.958;13.614;2022-08-04T02:15:19;18.70;99.90
5264;DHT22;2654;47.958;13.614;2022-08-04T02:17:59;18.50;99.90
5264;DHT22;2654;47.958;13.614;2022-08-04T02:20:32;18.50;99.90
5264;DHT22;2654;47.958;13.614;2022-08-04T02:23:02;18.50;99.90
5264;DHT22;2654;47.958;13.614;2022-08-04T02:25:35;18.40;99.90
5264;DHT22;2654;47.958;13.614;2022-08-04T02:28:15;18.60;99.90
5264;DHT22;2654;47.958;13.614;2022-08-04T02:31:01;18.80;99.90
5264;DHT22;2654;47.958;13.614;2022-08-04T02:33:36;18.70;99.90
5264;DHT22;2654;47.958;13.614;2022-08-04T02:36:05;18.40;99.90
5264;DHT22;2654;47.958;13.614;2022-08-04T02:38:48;18.30;99.90
5264;DHT22;2654;47.958;13.614;2022-08-04T02:41:19;18.20;99.90
5264;DHT22;2654;47.958;13.614;2022-08-04T02:43:48;18.10;99.90
5264;DHT22;2654;47.958;13.614;2022-08-04T02:46:17;18.00;99.90
5264;DHT22;2654;47.958;13.614;2022-08-04T02:48:47;18.00;99.90
5264;DHT22;2654;47.958;13.614;2022-08-04T02:51:18;18.10;99.90
5264;DHT22;2654;47.958;13.614;2022-08-04T02:53:46;18.00;99.90
5264;DHT22;2654;47.958;13.614;2022-08-04T02:56:18;18.00;99.90
5264;DHT22;2654;47.958;13.614;2022-08-04T02:58:48;18.20;99.90
5264;DHT22;2654;47.958;13.614;2022-08-04T03:01:15;18.00;99.90
5264;DHT22;2654;47.958;13.614;2022-08-04T03:03:52;17.80;99.90
5264;DHT22;2654;47.958;13.614;2022-08-04T03:09:38;18.00;99.90
5264;DHT22;2654;47.958;13.614;2022-08-04T03:12:29;17.90;99.90
5264;DHT22;2654;47.958;13.614;2022-08-04T03:25:10;17.80;99.90
5264;DHT22;2654;47.958;13.614;2022-08-04T03:31:03;18.00;99.90
5264;DHT22;2654;47.958;13.614;2022-08-04T03:33:44;18.10;99.90
5264;DHT22;2654;47.958;13.614;2022-08-04T03:39:46;18.20;99.90
5264;DHT22;2654;47.958;13.614;2022-08-04T03:42:33;18.20;99.90
5264;DHT22;2654;47.958;13.614;2022-08-04T03:45:25;18.10;99.90
5264;DHT22;2654;47.958;13.614;2022-08-04T03:51:33;17.90;99.90
5264;DHT22;2654;47.958;13.614;2022-08-04T04:00:26;17.70;99.90
5264;DHT22;2654;47.958;13.614;2022-08-04T04:09:25;18.30;99.90
5264;DHT22;2654;47.958;13.614;2022-08-04T04:15:03;18.60;99.90
5264;DHT22;2654;47.958;13.614;2022-08-04T04:21:04;18.80;91.50
5264;DHT22;2654;47.958;13.614;2022-08-04T04:24:13;19.00;1.00
5264;DHT22;2654;47.958;13.614;2022-08-04T04:26:56;19.10;1.00
5264;DHT22;2654;47.958;13.614;2022-08-04T04:29:34;19.00;99.90
5264;DHT22;2654;47.958;13.614;2022-08-04T04:32:21;19.00;99.90
5264;DHT22;2654;47.958;13.614;2022-08-04T04:35:08;18.80;99.90
5264;DHT22;2654;47.958;13.614;2022-08-04T04:37:57;18.80;1.00
5264;DHT22;2654;47.958;13.614;2022-08-04T04:40:33;18.70;99.90
5264;DHT22;2654;47.958;13.614;2022-08-04T04:43:13;18.50;1.00
5264;DHT22;2654;47.958;13.614;2022-08-04T04:45:48;18.80;99.90
5264;DHT22;2654;47.958;13.614;2022-08-04T04:48:29;18.90;99.90
5264;DHT22;2654;47.958;13.614;2022-08-04T04:51:07;19.10;99.90
5264;DHT22;2654;47.958;13.614;2022-08-04T04:53:44;19.10;99.90
5264;DHT22;2654;47.958;13.614;2022-08-04T04:56:17;19.30;99.90
5264;DHT22;2654;47.958;13.614;2022-08-04T04:58:45;19.40;1.00
5264;DHT22;2654;47.958;13.614;2022-08-04T05:04:42;19.50;1.00
5264;DHT22;2654;47.958;13.614;2022-08-04T05:07:38;19.80;1.00
5264;DHT22;2654;47.958;13.614;2022-08-04T05:10:22;19.90;99.90
5264;DHT22;2654;47.958;13.614;2022-08-04T05:13:09;20.10;99.90
5264;DHT22;2654;47.958;13.614;2022-08-04T05:15:42;20.20;99.90
5264;DHT22;2654;47.958;13.614;2022-08-04T05:18:15;20.30;99.90
5264;DHT22;2654;47.958;13.614;2022-08-04T05:20:50;20.40;99.90
5264;DHT22;2654;47.958;13.614;2022-08-04T05:23:24;20.60;99.90
5264;DHT22;2654;47.958;13.614;2022-08-04T05:25:56;20.60;99.90
5264;DHT22;2654;47.958;13.614;2022-08-04T05:28:27;20.70;99.90
5264;DHT22;2654;47.958;13.614;2022-08-04T05:31:00;20.70;99.90
5264;DHT22;2654;47.958;13.614;2022-08-04T05:33:33;20.50;99.90
5264;DHT22;2654;47.958;13.614;2022-08-04T05:36:16;20.40;99.90
5264;DHT22;2654;47.958;13.614;2022-08-04T05:38:45;20.60;99.90
5264;DHT22;2654;47.958;13.614;2022-08-04T05:41:15;20.90;99.90
5264;DHT22;2654;47.958;13.614;2022-08-04T05:43:43;20.90;99.90
5264;DHT22;2654;47.958;13.614;2022-08-04T05:46:11;20.90;99.90
5264;DHT22;2654;47.958;13.614;2022-08-04T05:48:40;20.80;99.90
5264;DHT22;2654;47.958;13.614;2022-08-04T05:51:10;20.70;99.90
5264;DHT22;2654;47.958;13.614;2022-08-04T05:53:38;20.60;99.90
5264;DHT22;2654;47.958;13.614;2022-08-04T05:56:10;20.50;99.90
5264;DHT22;2654;47.958;13.614;2022-08-04T05:58:38;20.70;99.90
5264;DHT22;2654;47.958;13.614;2022-08-04T06:01:08;21.00;99.90
5264;DHT22;2654;47.958;13.614;2022-08-04T06:03:37;21.10;99.90
5264;DHT22;2654;47.958;13.614;2022-08-04T06:06:06;21.00;99.90
5264;DHT22;2654;47.958;13.614;2022-08-04T06:08:37;21.20;99.90
5264;DHT22;2654;47.958;13.614;2022-08-04T06:11:07;21.60;99.90
5264;DHT22;2654;47.958;13.614;2022-08-04T06:13:39;22.00;99.90
5264;DHT22;2654;47.958;13.614;2022-08-04T06:16:08;22.10;99.90
5264;DHT22;2654;47.958;13.614;2022-08-04T06:18:38;22.20;99.90
5264;DHT22;2654;47.958;13.614;2022-08-04T06:21:07;22.40;99.90
5264;DHT22;2654;47.958;13.614;2022-08-04T06:23:38;22.60;99.90
5264;DHT22;2654;47.958;13.614;2022-08-04T06:26:08;22.80;99.90
5264;DHT22;2654;47.958;13.614;2022-08-04T06:28:36;22.30;99.90
5264;DHT22;2654;47.958;13.614;2022-08-04T06:31:04;22.00;99.90
5264;DHT22;2654;47.958;13.614;2022-08-04T06:33:34;22.20;99.90
5264;DHT22;2654;47.958;13.614;2022-08-04T06:36:05;22.40;99.90
5264;DHT22;2654;47.958;13.614;2022-08-04T06:38:33;22.80;99.90
5264;DHT22;2654;47.958;13.614;2022-08-04T06:41:03;23.20;99.90
5264;DHT22;2654;47.958;13.614;2022-08-04T06:43:35;23.30;99.90
5264;DHT22;2654;47.958;13.614;2022-08-04T06:46:04;23.40;99.90
5264;DHT22;2654;47.958;13.614;2022-08-04T06:48:32;23.60;99.90
5264;DHT22;2654;47.958;13.614;2022-08-04T06:51:00;23.70;99.90
5264;DHT22;2654;47.958;13.614;2022-08-04T06:53:28;23.70;99.90
5264;DHT22;2654;47.958;13.614;2022-08-04T06:55:56;23.90;99.90
5264;DHT22;2654;47.958;13.614;2022-08-04T06:58:27;24.10;99.90
5264;DHT22;2654;47.958;13.614;2022-08-04T07:00:58;24.30;99.90
5264;DHT22;2654;47.958;13.614;2022-08-04T07:03:27;24.20;99.90
5264;DHT22;2654;47.958;13.614;2022-08-04T07:05:55;24.20;99.90
5264;DHT22;2654;47.958;13.614;2022-08-04T07:08:22;24.40;99.90
5264;DHT22;2654;47.958;13.614;2022-08-04T07:10:51;24.60;99.90
5264;DHT22;2654;47.958;13.614;2022-08-04T07:13:20;24.80;99.90
5264;DHT22;2654;47.958;13.614;2022-08-04T07:15:50;25.00;99.90
5264;DHT22;2654;47.958;13.614;2022-08-04T07:18:18;24.90;99.90
5264;DHT22;2654;47.958;13.614;2022-08-04T07:20:45;24.90;99.90
5264;DHT22;2654;47.958;13.614;2022-08-04T07:23:14;24.70;99.90
5264;DHT22;2654;47.958;13.614;2022-08-04T07:25:49;24.40;99.90
5264;DHT22;2654;47.958;13.614;2022-08-04T07:28:17;24.50;99.90
5264;DHT22;2654;47.958;13.614;2022-08-04T07:30:46;24.00;99.90
5264;DHT22;2654;47.958;13.614;2022-08-04T07:33:16;23.90;99.90
5264;DHT22;2654;47.958;13.614;2022-08-04T07:35:44;24.30;99.90
5264;DHT22;2654;47.958;13.614;2022-08-04T07:38:12;24.80;99.90
5264;DHT22;2654;47.958;13.614;2022-08-04T07:40:40;25.00;99.90
5264;DHT22;2654;47.958;13.614;2022-08-04T07:43:07;25.20;99.90
5264;DHT22;2654;47.958;13.614;2022-08-04T07:45:35;25.50;99.90
5264;DHT22;2654;47.958;13.614;2022-08-04T07:48:04;25.70;99.90
5264;DHT22;2654;47.958;13.614;2022-08-04T07:50:33;25.50;99.90
5264;DHT22;2654;47.958;13.614;2022-08-04T07:53:03;25.30;99.90
5264;DHT22;2654;47.958;13.614;2022-08-04T07:55:31;25.30;99.90
5264;DHT22;2654;47.958;13.614;2022-08-04T07:57:59;25.50;99.90
5264;DHT22;2654;47.958;13.614;2022-08-04T08:00:26;25.70;99.90
5264;DHT22;2654;47.958;13.614;2022-08-04T08:02:54;25.90;99.90
5264;DHT22;2654;47.958;13.614;2022-08-04T08:05:22;25.60;99.90
5264;DHT22;2654;47.958;13.614;2022-08-04T08:07:51;25.80;99.90
5264;DHT22;2654;47.958;13.614;2022-08-04T08:10:19;25.80;99.90
5264;DHT22;2654;47.958;13.614;2022-08-04T08:12:47;26.00;99.90
5264;DHT22;2654;47.958;13.614;2022-08-04T08:15:15;25.70;99.90
5264;DHT22;2654;47.958;13.614;2022-08-04T08:17:42;25.70;99.90
5264;DHT22;2654;47.958;13.614;2022-08-04T08:20:10;25.60;99.90
5264;DHT22;2654;47.958;13.614;2022-08-04T08:22:38;25.70;99.90
5264;DHT22;2654;47.958;13.614;2022-08-04T08:25:07;25.90;99.90
5264;DHT22;2654;47.958;13.614;2022-08-04T08:27:36;25.80;99.90
5264;DHT22;2654;47.958;13.614;2022-08-04T08:30:04;25.80;99.90
5264;DHT22;2654;47.958;13.614;2022-08-04T08:32:32;26.10;99.90
5264;DHT22;2654;47.958;13.614;2022-08-04T08:35:00;26.50;99.90
5264;DHT22;2654;47.958;13.614;2022-08-04T08:37:32;26.90;99.90
5264;DHT22;2654;47.958;13.614;2022-08-04T08:40:17;26.40;99.90
5264;DHT22;2654;47.958;13.614;2022-08-04T08:42:59;26.50;99.90
5264;DHT22;2654;47.958;13.614;2022-08-04T08:45:53;26.70;99.90
5264;DHT22;2654;47.958;13.614;2022-08-04T08:48:58;26.70;99.90
5264;DHT22;2654;47.958;13.614;2022-08-04T08:51:44;26.80;99.90
5264;DHT22;2654;47.958;13.614;2022-08-04T08:54:33;26.80;99.90
5264;DHT22;2654;47.958;13.614;2022-08-04T08:57:37;26.60;99.90
5264;DHT22;2654;47.958;13.614;2022-08-04T09:00:13;26.60;99.90
5264;DHT22;2654;47.958;13.614;2022-08-04T09:03:33;26.50;99.90
5264;DHT22;2654;47.958;13.614;2022-08-04T09:10:02;26.90;99.90
5264;DHT22;2654;47.958;13.614;2022-08-04T09:12:40;26.90;99.90
5264;DHT22;2654;47.958;13.614;2022-08-04T09:15:13;26.60;99.90
5264;DHT22;2654;47.958;13.614;2022-08-04T09:17:46;26.40;99.90
5264;DHT22;2654;47.958;13.614;2022-08-04T09:20:21;26.30;99.90
5264;DHT22;2654;47.958;13.614;2022-08-04T09:22:53;26.60;99.90
5264;DHT22;2654;47.958;13.614;2022-08-04T09:25:25;26.90;99.90
5264;DHT22;2654;47.958;13.614;2022-08-04T09:27:58;27.30;99.90
5264;DHT22;2654;47.958;13.614;2022-08-04T09:30:31;27.50;99.90
5264;DHT22;2654;47.958;13.614;2022-08-04T09:33:23;27.90;99.90
5264;DHT22;2654;47.958;13.614;2022-08-04T09:35:57;28.00;99.90
5264;DHT22;2654;47.958;13.614;2022-08-04T09:38:32;27.90;99.90
5264;DHT22;2654;47.958;13.614;2022-08-04T09:41:09;28.10;99.90
5264;DHT22;2654;47.958;13.614;2022-08-04T09:43:53;28.10;99.30
5264;DHT22;2654;47.958;13.614;2022-08-04T09:46:27;28.20;99.80
5264;DHT22;2654;47.958;13.614;2022-08-04T09:48:58;28.30;99.90
5264;DHT22;2654;47.958;13.614;2022-08-04T09:51:39;28.40;99.90
5264;DHT22;2654;47.958;13.614;2022-08-04T09:54:15;28.40;99.80
5264;DHT22;2654;47.958;13.614;2022-08-04T09:57:06;28.20;98.50
5264;DHT22;2654;47.958;13.614;2022-08-04T09:59:44;28.00;99.10
5264;DHT22;2654;47.958;13.614;2022-08-04T10:02:18;28.40;99.40
5264;DHT22;2654;47.958;13.614;2022-08-04T10:04:48;28.40;99.50
5264;DHT22;2654;47.958;13.614;2022-08-04T10:07:40;28.50;99.90
5264;DHT22;2654;47.958;13.614;2022-08-04T10:10:20;28.50;99.80
5264;DHT22;2654;47.958;13.614;2022-08-04T10:13:08;28.50;99.70
5264;DHT22;2654;47.958;13.614;2022-08-04T10:15:48;28.80;98.60
5264;DHT22;2654;47.958;13.614;2022-08-04T10:18:30;29.00;97.30
5264;DHT22;2654;47.958;13.614;2022-08-04T10:21:06;29.10;96.30
5264;DHT22;2654;47.958;13.614;2022-08-04T10:23:41;28.90;95.90
5264;DHT22;2654;47.958;13.614;2022-08-04T10:26:24;28.90;96.10
5264;DHT22;2654;47.958;13.614;2022-08-04T10:28:59;29.10;94.30
5264;DHT22;2654;47.958;13.614;2022-08-04T10:31:33;29.50;95.20
5264;DHT22;2654;47.958;13.614;2022-08-04T10:34:05;29.50;94.30
5264;DHT22;2654;47.958;13.614;2022-08-04T10:36:43;29.20;95.20
5264;DHT22;2654;47.958;13.614;2022-08-04T10:39:17;29.20;96.50
5264;DHT22;2654;47.958;13.614;2022-08-04T10:41:53;29.40;94.60
5264;DHT22;2654;47.958;13.614;2022-08-04T10:44:36;29.50;94.20
5264;DHT22;2654;47.958;13.614;2022-08-04T10:47:13;29.60;95.00
5264;DHT22;2654;47.958;13.614;2022-08-04T10:49:44;29.40;91.40
5264;DHT22;2654;47.958;13.614;2022-08-04T10:52:17;29.00;91.90
5264;DHT22;2654;47.958;13.614;2022-08-04T10:54:52;29.30;93.40
5264;DHT22;2654;47.958;13.614;2022-08-04T10:57:27;29.60;92.10
5264;DHT22;2654;47.958;13.614;2022-08-04T10:59:58;29.60;91.60
5264;DHT22;2654;47.958;13.614;2022-08-04T11:02:36;29.40;94.70
5264;DHT22;2654;47.958;13.614;2022-08-04T11:05:21;29.60;94.30
5264;DHT22;2654;47.958;13.614;2022-08-04T11:07:54;30.00;93.70
5264;DHT22;2654;47.958;13.614;2022-08-04T11:10:25;30.30;92.10
5264;DHT22;2654;47.958;13.614;2022-08-04T11:12:58;29.90;90.70
5264;DHT22;2654;47.958;13.614;2022-08-04T11:15:32;29.90;91.40
5264;DHT22;2654;47.958;13.614;2022-08-04T11:18:09;29.90;88.40
5264;DHT22;2654;47.958;13.614;2022-08-04T11:20:43;30.10;91.10
5264;DHT22;2654;47.958;13.614;2022-08-04T11:23:15;30.00;89.80
5264;DHT22;2654;47.958;13.614;2022-08-04T11:25:51;30.30;85.10
5264;DHT22;2654;47.958;13.614;2022-08-04T11:28:32;30.50;86.60
5264;DHT22;2654;47.958;13.614;2022-08-04T11:31:04;30.50;86.20
5264;DHT22;2654;47.958;13.614;2022-08-04T11:33:43;30.70;87.40
5264;DHT22;2654;47.958;13.614;2022-08-04T11:36:19;30.90;87.30
5264;DHT22;2654;47.958;13.614;2022-08-04T11:38:55;31.10;88.10
5264;DHT22;2654;47.958;13.614;2022-08-04T11:41:34;31.60;85.50
5264;DHT22;2654;47.958;13.614;2022-08-04T11:44:04;31.60;85.80
5264;DHT22;2654;47.958;13.614;2022-08-04T11:46:37;31.90;84.70
5264;DHT22;2654;47.958;13.614;2022-08-04T11:49:10;32.10;80.80
5264;DHT22;2654;47.958;13.614;2022-08-04T11:51:42;31.90;83.00
5264;DHT22;2654;47.958;13.614;2022-08-04T11:54:11;32.00;82.20
5264;DHT22;2654;47.958;13.614;2022-08-04T11:56:39;32.40;78.90
5264;DHT22;2654;47.958;13.614;2022-08-04T11:59:07;32.30;77.90
5264;DHT22;2654;47.958;13.614;2022-08-04T12:01:42;32.00;79.60
5264;DHT22;2654;47.958;13.614;2022-08-04T12:04:22;31.50;81.20
5264;DHT22;2654;47.958;13.614;2022-08-04T12:06:55;31.30;76.50
5264;DHT22;2654;47.958;13.614;2022-08-04T12:09:31;31.80;76.00
5264;DHT22;2654;47.958;13.614;2022-08-04T12:12:17;31.70;77.70
5264;DHT22;2654;47.958;13.614;2022-08-04T12:14:50;31.80;78.20
5264;DHT22;2654;47.958;13.614;2022-08-04T12:17:25;32.10;73.00
5264;DHT22;2654;47.958;13.614;2022-08-04T12:20:00;31.60;69.70
5264;DHT22;2654;47.958;13.614;2022-08-04T12:22:33;31.60;75.30
5264;DHT22;2654;47.958;13.614;2022-08-04T12:25:04;31.90;65.30
5264;DHT22;2654;47.958;13.614;2022-08-04T12:27:35;32.30;64.00
5264;DHT22;2654;47.958;13.614;2022-08-04T12:30:04;32.50;68.10
5264;DHT22;2654;47.958;13.614;2022-08-04T12:32:36;32.80;66.30
5264;DHT22;2654;47.958;13.614;2022-08-04T12:35:12;33.20;65.40
5264;DHT22;2654;47.958;13.614;2022-08-04T12:37:49;33.40;63.90
5264;DHT22;2654;47.958;13.614;2022-08-04T12:40:24;33.60;63.90
5264;DHT22;2654;47.958;13.614;2022-08-04T12:42:56;33.80;65.40
5264;DHT22;2654;47.958;13.614;2022-08-04T12:45:24;34.00;61.20
5264;DHT22;2654;47.958;13.614;2022-08-04T12:47:55;34.10;61.90
5264;DHT22;2654;47.958;13.614;2022-08-04T12:50:24;34.40;61.40
5264;DHT22;2654;47.958;13.614;2022-08-04T12:52:55;34.40;59.70
5264;DHT22;2654;47.958;13.614;2022-08-04T12:55:24;33.70;62.30
5264;DHT22;2654;47.958;13.614;2022-08-04T12:57:53;33.30;60.20
5264;DHT22;2654;47.958;13.614;2022-08-04T13:00:27;32.50;61.30
5264;DHT22;2654;47.958;13.614;2022-08-04T13:02:59;32.10;63.20
5264;DHT22;2654;47.958;13.614;2022-08-04T13:05:32;32.50;62.50
5264;DHT22;2654;47.958;13.614;2022-08-04T13:08:01;32.80;62.60
5264;DHT22;2654;47.958;13.614;2022-08-04T13:10:31;33.30;63.60
5264;DHT22;2654;47.958;13.614;2022-08-04T13:13:03;32.80;63.20
5264;DHT22;2654;47.958;13.614;2022-08-04T13:15:30;33.20;63.90
5264;DHT22;2654;47.958;13.614;2022-08-04T13:18:02;33.30;58.40
5264;DHT22;2654;47.958;13.614;2022-08-04T13:20:33;33.60;60.10
5264;DHT22;2654;47.958;13.614;2022-08-04T13:23:05;33.70;64.20
5264;DHT22;2654;47.958;13.614;2022-08-04T13:25:34;33.80;61.20
5264;DHT22;2654;47.958;13.614;2022-08-04T13:28:05;34.10;59.30
5264;DHT22;2654;47.958;13.614;2022-08-04T13:30:38;34.40;60.90
5264;DHT22;2654;47.958;13.614;2022-08-04T13:33:06;34.70;57.30
5264;DHT22;2654;47.958;13.614;2022-08-04T13:35:41;34.80;56.90
5264;DHT22;2654;47.958;13.614;2022-08-04T13:38:11;35.00;58.70
5264;DHT22;2654;47.958;13.614;2022-08-04T13:40:40;34.90;57.10
5264;DHT22;2654;47.958;13.614;2022-08-04T13:43:11;34.90;55.50
5264;DHT22;2654;47.958;13.614;2022-08-04T13:45:40;35.00;53.00
5264;DHT22;2654;47.958;13.614;2022-08-04T13:48:08;34.60;57.60
5264;DHT22;2654;47.958;13.614;2022-08-04T13:50:38;34.30;54.00
5264;DHT22;2654;47.958;13.614;2022-08-04T13:53:11;34.40;55.80
5264;DHT22;2654;47.958;13.614;2022-08-04T13:55:39;34.80;56.30
5264;DHT22;2654;47.958;13.614;2022-08-04T13:58:09;34.80;53.50
5264;DHT22;2654;47.958;13.614;2022-08-04T14:00:43;35.20;55.20
5264;DHT22;2654;47.958;13.614;2022-08-04T14:03:17;35.40;54.50
5264;DHT22;2654;47.958;13.614;2022-08-04T14:06:12;35.70;54.30
5264;DHT22;2654;47.958;13.614;2022-08-04T14:08:47;35.30;53.60
5264;DHT22;2654;47.958;13.614;2022-08-04T14:11:16;34.20;53.50
5264;DHT22;2654;47.958;13.614;2022-08-04T14:13:44;33.80;57.30
5264;DHT22;2654;47.958;13.614;2022-08-04T14:16:16;33.70;56.10
5264;DHT22;2654;47.958;13.614;2022-08-04T14:18:44;33.40;55.90
5264;DHT22;2654;47.958;13.614;2022-08-04T14:21:14;33.50;54.40
5264;DHT22;2654;47.958;13.614;2022-08-04T14:23:46;33.80;54.20
5264;DHT22;2654;47.958;13.614;2022-08-04T14:26:21;33.90;53.60
5264;DHT22;2654;47.958;13.614;2022-08-04T14:28:50;33.20;55.30
5264;DHT22;2654;47.958;13.614;2022-08-04T14:31:19;33.30;55.00
5264;DHT22;2654;47.958;13.614;2022-08-04T14:33:48;33.80;56.30
5264;DHT22;2654;47.958;13.614;2022-08-04T14:36:18;34.40;56.10
5264;DHT22;2654;47.958;13.614;2022-08-04T14:38:55;34.80;53.20
5264;DHT22;2654;47.958;13.614;2022-08-04T14:41:25;34.60;51.20
5264;DHT22;2654;47.958;13.614;2022-08-04T14:43:57;34.90;53.00
5264;DHT22;2654;47.958;13.614;2022-08-04T14:46:26;35.40;51.30
5264;DHT22;2654;47.958;13.614;2022-08-04T14:49:14;35.80;50.50
5264;DHT22;2654;47.958;13.614;2022-08-04T14:51:44;36.30;49.70
5264;DHT22;2654;47.958;13.614;2022-08-04T14:54:13;36.60;49.90
5264;DHT22;2654;47.958;13.614;2022-08-04T14:56:50;36.70;47.90
5264;DHT22;2654;47.958;13.614;2022-08-04T14:59:17;36.80;45.90
5264;DHT22;2654;47.958;13.614;2022-08-04T15:01:45;36.90;48.60
5264;DHT22;2654;47.958;13.614;2022-08-04T15:04:15;36.90;48.40
5264;DHT22;2654;47.958;13.614;2022-08-04T15:06:46;36.90;49.30
5264;DHT22;2654;47.958;13.614;2022-08-04T15:09:13;36.90;50.10
5264;DHT22;2654;47.958;13.614;2022-08-04T15:11:41;36.90;47.30
5264;DHT22;2654;47.958;13.614;2022-08-04T15:14:08;36.30;45.80
5264;DHT22;2654;47.958;13.614;2022-08-04T15:16:35;36.30;49.10
5264;DHT22;2654;47.958;13.614;2022-08-04T15:19:03;36.60;48.70
5264;DHT22;2654;47.958;13.614;2022-08-04T15:21:30;36.90;46.50
5264;DHT22;2654;47.958;13.614;2022-08-04T15:24:00;37.20;48.50
5264;DHT22;2654;47.958;13.614;2022-08-04T15:26:31;37.30;44.70
5264;DHT22;2654;47.958;13.614;2022-08-04T15:29:04;37.30;46.00
5264;DHT22;2654;47.958;13.614;2022-08-04T15:31:37;37.40;45.80
5264;DHT22;2654;47.958;13.614;2022-08-04T15:34:06;37.70;45.30
5264;DHT22;2654;47.958;13.614;2022-08-04T15:36:38;38.20;45.30
5264;DHT22;2654;47.958;13.614;2022-08-04T15:39:19;38.80;44.10
5264;DHT22;2654;47.958;13.614;2022-08-04T15:41:55;39.10;43.30
5264;DHT22;2654;47.958;13.614;2022-08-04T15:44:56;39.90;41.70
5264;DHT22;2654;47.958;13.614;2022-08-04T15:47:25;40.80;40.70
5264;DHT22;2654;47.958;13.614;2022-08-04T15:50:07;42.10;40.10
5264;DHT22;2654;47.958;13.614;2022-08-04T15:53:00;43.20;37.70
5264;DHT22;2654;47.958;13.614;2022-08-04T15:55:34;44.40;36.80
5264;DHT22;2654;47.958;13.614;2022-08-04T15:58:03;45.60;36.70
5264;DHT22;2654;47.958;13.614;2022-08-04T16:03:47;47.40;35.10
5264;DHT22;2654;47.958;13.614;2022-08-04T16:09:25;49.00;35.10
5264;DHT22;2654;47.958;13.614;2022-08-04T16:11:54;50.00;31.30
5264;DHT22;2654;47.958;13.614;2022-08-04T16:14:32;50.80;29.80
5264;DHT22;2654;47.958;13.614;2022-08-04T16:17:17;50.10;28.60
5264;DHT22;2654;47.958;13.614;2022-08-04T16:19:55;45.30;33.30
5264;DHT22;2654;47.958;13.614;2022-08-04T16:22:34;44.30;35.50
5264;DHT22;2654;47.958;13.614;2022-08-04T16:25:03;43.10;37.70
5264;DHT22;2654;47.958;13.614;2022-08-04T16:27:40;42.70;39.20
5264;DHT22;2654;47.958;13.614;2022-08-04T16:30:10;43.10;38.50
5264;DHT22;2654;47.958;13.614;2022-08-04T16:32:43;43.30;38.20
5264;DHT22;2654;47.958;13.614;2022-08-04T16:35:20;42.40;37.90
5264;DHT22;2654;47.958;13.614;2022-08-04T16:37:52;42.60;39.30
5264;DHT22;2654;47.958;13.614;2022-08-04T16:40:34;41.90;38.90
5264;DHT22;2654;47.958;13.614;2022-08-04T16:43:07;41.50;39.80
5264;DHT22;2654;47.958;13.614;2022-08-04T16:45:41;41.90;40.20
5264;DHT22;2654;47.958;13.614;2022-08-04T16:48:09;42.20;39.80
5264;DHT22;2654;47.958;13.614;2022-08-04T16:50:51;41.60;39.20
5264;DHT22;2654;47.958;13.614;2022-08-04T16:53:20;41.50;39.90
5264;DHT22;2654;47.958;13.614;2022-08-04T16:55:50;41.90;40.50
5264;DHT22;2654;47.958;13.614;2022-08-04T16:58:24;42.00;39.50
5264;DHT22;2654;47.958;13.614;2022-08-04T17:00:52;41.50;39.90
5264;DHT22;2654;47.958;13.614;2022-08-04T17:03:20;41.60;40.10
5264;DHT22;2654;47.958;13.614;2022-08-04T17:05:47;40.50;40.00
5264;DHT22;2654;47.958;13.614;2022-08-04T17:08:15;40.20;41.30
5264;DHT22;2654;47.958;13.614;2022-08-04T17:10:46;41.00;41.70
5264;DHT22;2654;47.958;13.614;2022-08-04T17:13:26;41.10;40.30
5264;DHT22;2654;47.958;13.614;2022-08-04T17:15:55;41.20;40.20
5264;DHT22;2654;47.958;13.614;2022-08-04T17:18:24;40.80;39.90
5264;DHT22;2654;47.958;13.614;2022-08-04T17:20:53;41.50;40.20
5264;DHT22;2654;47.958;13.614;2022-08-04T17:26:11;42.40;39.20
5264;DHT22;2654;47.958;13.614;2022-08-04T17:28:44;42.20;39.20
5264;DHT22;2654;47.958;13.614;2022-08-04T17:31:12;42.30;38.80
5264;DHT22;2654;47.958;13.614;2022-08-04T17:33:44;42.30;38.10
5264;DHT22;2654;47.958;13.614;2022-08-04T17:36:12;41.70;38.50